Time;durP1;ratioP1;P1;durP2;ratioP2;P2;SDS_P1;SDS_P2;PMS_P1;PMS_P2;Temp;Humidity;BMP_temperature;BMP_pressure;BME280_temperature;BME280_humidity;BME280_pressure;Samples;Min_cycle;Max_cycle;Signal;HPM_P1;HPM_P2
2022/09/01 00:02:14;;;;;;;;;13.25;11.25;;;;;24.40;36.69;101107.47;5124464;27;45214;-67
2022/09/01 00:04:46;;;;;;;;;13.75;12.50;;;;;24.38;36.74;101106.72;5124087;27;47261;-67
2022/09/01 00:07:12;;;;;;;;;12.50;11.50;;;;;24.35;36.82;101109.59;5123428;27;45477;-67
2022/09/01 00:09:39;;;;;;;;;15.00;13.25;;;;;24.33;36.91;101112.38;5123106;27;45319;-67
2022/09/01 00:12:08;;;;;;;;;18.00;14.50;;;;;24.31;36.75;101108.94;5105757;27;45209;-67
2022/09/01 00:14:36;;;;;;;;;14.50;14.00;;;;;24.25;36.82;101097.75;5105329;27;47205;-67
2022/09/01 00:17:05;;;;;;;;;13.75;12.25;;;;;24.27;36.87;101099.34;5124184;27;45281;-67
2022/09/01 00:19:32;;;;;;;;;15.75;15.50;;;;;24.23;36.66;101092.47;5124185;27;45333;-67
2022/09/01 00:21:59;;;;;;;;;14.00;14.00;;;;;24.22;37.12;101096.13;5123954;27;45354;-67
2022/09/01 00:24:24;;;;;;;;;15.25;13.25;;;;;24.18;36.98;101086.56;5105441;27;47170;-67
2022/09/01 00:26:51;;;;;;;;;14.50;14.25;;;;;24.18;37.21;101094.59;5124171;27;45743;-67
2022/09/01 00:29:16;;;;;;;;;20.25;17.75;;;;;24.13;36.97;101081.47;5123934;27;45306;-67
2022/09/01 00:31:42;;;;;;;;;15.50;14.50;;;;;24.13;37.35;101091.38;5122633;27;45450;-67
2022/09/01 00:34:07;;;;;;;;;14.75;14.00;;;;;24.11;37.29;101087.91;5123770;27;45270;-68
2022/09/01 00:36:33;;;;;;;;;17.75;16.75;;;;;24.08;37.21;101093.50;5123734;27;45413;-68
2022/09/01 00:38:58;;;;;;;;;15.00;14.75;;;;;24.05;37.15;101096.38;5123738;27;45526;-68
2022/09/01 00:41:26;;;;;;;;;14.75;14.75;;;;;24.03;37.50;101096.47;5124003;27;45427;-67
2022/09/01 00:43:58;;;;;;;;;14.25;14.25;;;;;24.00;37.46;101094.84;5123493;27;46187;-67
2022/09/01 00:46:31;;;;;;;;;15.00;12.00;;;;;23.98;37.78;101096.75;5105413;27;45867;-67
2022/09/01 00:49:01;;;;;;;;;14.00;14.00;;;;;23.97;37.51;101097.72;5123700;27;45329;-67
2022/09/01 00:51:27;;;;;;;;;14.00;14.00;;;;;23.94;37.85;101092.56;5122902;27;45364;-67
2022/09/01 00:53:54;;;;;;;;;13.50;13.50;;;;;23.91;37.58;101084.72;5123376;27;45326;-67
2022/09/01 00:56:21;;;;;;;;;13.75;13.25;;;;;23.90;37.69;101101.75;5123652;27;45330;-67
2022/09/01 00:58:48;;;;;;;;;15.75;14.00;;;;;23.86;37.62;101094.84;5123405;27;45252;-67
2022/09/01 01:01:13;;;;;;;;;13.75;12.75;;;;;23.85;37.79;101096.69;5123547;27;45253;-68
2022/09/01 01:03:44;;;;;;;;;15.75;15.75;;;;;23.79;37.88;101094.38;5123109;27;45251;-68
2022/09/01 01:06:12;;;;;;;;;16.50;13.75;;;;;23.80;37.88;101084.53;5090479;27;45370;-67
2022/09/01 01:08:40;;;;;;;;;17.50;16.75;;;;;23.78;37.96;101084.63;5102943;27;45232;-67
2022/09/01 01:11:16;;;;;;;;;15.25;13.25;;;;;23.77;38.15;101085.59;5084344;27;45905;-67
2022/09/01 01:13:51;;;;;;;;;18.25;15.50;;;;;23.74;38.05;101085.78;5102435;27;46195;-67
2022/09/01 01:16:18;;;;;;;;;12.00;12.00;;;;;23.71;38.20;101083.31;5102460;27;45329;-67
2022/09/01 01:18:43;;;;;;;;;19.75;17.50;;;;;23.69;38.16;101088.75;5102844;27;45346;-67
2022/09/01 01:24:08;;;;;;;;;12.75;12.25;;;;;23.66;38.26;101085.41;5102638;27;45740;-67
2022/09/01 01:26:33;;;;;;;;;14.50;12.25;;;;;23.64;38.49;101088.19;5102473;27;45303;-67
2022/09/01 01:29:01;;;;;;;;;18.25;14.50;;;;;23.64;38.55;101079.28;5102216;27;45308;-67
2022/09/01 01:31:26;;;;;;;;;16.00;14.00;;;;;23.61;38.72;101088.41;5102502;27;45311;-68
2022/09/01 01:33:55;;;;;;;;;12.00;12.00;;;;;23.61;38.61;101079.47;5102046;27;46186;-67
2022/09/01 01:36:36;;;;;;;;;14.25;14.25;;;;;23.57;38.77;101084.19;5101994;27;45240;-67
2022/09/01 01:39:20;;;;;;;;;15.50;15.25;;;;;23.56;38.67;101082.47;5102082;27;45334;-67
2022/09/01 01:41:47;;;;;;;;;14.50;14.50;;;;;23.54;38.82;101084.38;5102199;27;45414;-68
2022/09/01 01:44:15;;;;;;;;;13.50;12.75;;;;;23.53;38.51;101085.31;5108712;27;46390;-68
2022/09/01 01:46:44;;;;;;;;;10.75;10.00;;;;;23.52;38.70;101088.97;5122637;27;45266;-68
2022/09/01 01:49:12;;;;;;;;;15.00;15.00;;;;;23.49;38.60;101087.34;5122871;27;45239;-68
2022/09/01 01:51:38;;;;;;;;;17.25;14.25;;;;;23.49;38.71;101089.16;5122228;27;45517;-68
2022/09/01 01:54:04;;;;;;;;;13.50;11.75;;;;;23.48;38.69;101087.44;5122584;27;46400;-68
2022/09/01 01:56:31;;;;;;;;;15.25;15.25;;;;;23.45;39.03;101085.81;5122326;27;45354;-68
2022/09/01 01:58:57;;;;;;;;;16.50;14.00;;;;;23.44;38.86;101093.97;5122649;27;45484;-68
2022/09/01 02:01:27;;;;;;;;;13.00;13.00;;;;;23.43;38.98;101087.72;5122010;27;45506;-68
2022/09/01 02:03:57;;;;;;;;;13.50;13.50;;;;;23.43;38.96;101086.88;5121434;27;46133;-68
2022/09/01 02:06:24;;;;;;;;;14.50;13.25;;;;;23.42;39.01;101095.88;5121831;27;45228;-68
2022/09/01 02:08:56;;;;;;;;;15.75;13.50;;;;;23.40;39.26;101085.25;5122444;27;45283;-68
2022/09/01 02:11:22;;;;;;;;;11.50;11.25;;;;;23.40;39.09;101087.94;5121732;27;45505;-68
2022/09/01 02:13:48;;;;;;;;;14.00;13.00;;;;;23.40;39.33;101084.41;5122100;27;45238;-68
2022/09/01 02:16:15;;;;;;;;;12.50;12.25;;;;;23.34;39.44;101082.94;5122196;27;45205;-67
2022/09/01 02:18:46;;;;;;;;;12.00;10.75;;;;;23.35;39.52;101093.56;5122555;27;45287;-67
2022/09/01 02:21:18;;;;;;;;;14.00;12.75;;;;;23.34;39.27;101093.69;5121811;27;45174;-67
2022/09/01 02:23:45;;;;;;;;;13.00;12.50;;;;;23.33;39.13;101097.31;5103573;27;46239;-68
2022/09/01 02:26:11;;;;;;;;;18.50;14.25;;;;;23.31;39.46;101099.25;5103332;27;45294;-68
2022/09/01 02:28:41;;;;;;;;;14.75;12.75;;;;;23.28;39.48;101097.63;5122034;27;45201;-68
2022/09/01 02:31:07;;;;;;;;;15.75;15.00;;;;;23.25;39.38;101096.94;5120721;27;45506;-68
2022/09/01 02:33:33;;;;;;;;;17.25;14.25;;;;;23.23;39.64;101091.66;5121812;27;45390;-68
2022/09/01 02:36:03;;;;;;;;;16.00;15.75;;;;;23.21;39.78;101094.44;5121493;27;45310;-68
2022/09/01 02:38:31;;;;;;;;;16.25;15.50;;;;;23.20;39.88;101098.06;5121798;27;45191;-68
2022/09/01 02:40:57;;;;;;;;;11.25;11.25;;;;;23.18;39.60;101091.06;5121776;27;45330;-68
2022/09/01 02:43:26;;;;;;;;;12.50;10.50;;;;;23.16;39.75;101101.91;5121691;27;45357;-68
2022/09/01 02:45:54;;;;;;;;;14.75;12.75;;;;;23.15;39.83;101101.97;5121942;27;45292;-68
2022/09/01 02:48:23;;;;;;;;;13.75;12.00;;;;;23.13;39.83;101098.50;5121848;27;45215;-68
2022/09/01 02:50:49;;;;;;;;;14.25;12.50;;;;;23.10;39.89;101096.88;5121603;27;45302;-68
2022/09/01 02:53:15;;;;;;;;;12.00;10.50;;;;;23.09;39.62;101094.31;5121447;27;47065;-68
2022/09/01 02:55:41;;;;;;;;;16.50;12.50;;;;;23.07;39.93;101096.22;5103076;27;45259;-67
2022/09/01 02:58:15;;;;;;;;;11.50;10.50;;;;;23.02;40.14;101092.00;5121631;27;45355;-67
2022/09/01 03:00:43;;;;;;;;;12.00;10.25;;;;;23.02;40.13;101091.16;5121767;27;45547;-67
2022/09/01 03:03:11;;;;;;;;;8.25;8.25;;;;;23.01;40.05;101090.28;5121108;27;45363;-68
2022/09/01 03:05:38;;;;;;;;;10.75;9.25;;;;;22.98;40.42;101092.28;5119908;27;45330;-67
2022/09/01 03:08:09;;;;;;;;;14.25;13.00;;;;;22.92;40.06;101087.28;5121700;27;45251;-68
2022/09/01 03:10:40;;;;;;;;;13.25;12.50;;;;;22.91;40.35;101091.78;5121464;27;45160;-67
2022/09/01 03:13:09;;;;;;;;;14.00;12.25;;;;;22.88;40.24;101090.16;5119455;27;48005;-68
2022/09/01 03:15:36;;;;;;;;;10.75;10.75;;;;;22.87;40.28;101090.25;5121345;27;45370;-67
2022/09/01 03:18:04;;;;;;;;;10.50;10.00;;;;;22.86;40.42;101080.50;5121307;27;45393;-67
2022/09/01 03:20:32;;;;;;;;;12.75;12.75;;;;;22.83;40.42;101080.66;5121188;27;45353;-68
2022/09/01 03:23:03;;;;;;;;;12.00;9.75;;;;;22.84;40.86;101079.72;5120305;27;45282;-68
2022/09/01 03:25:30;;;;;;;;;12.50;12.00;;;;;22.83;40.38;101080.66;5121188;27;45421;-68
2022/09/01 03:27:58;;;;;;;;;13.00;11.25;;;;;22.80;40.43;101087.06;5120997;27;45315;-67
2022/09/01 03:30:25;;;;;;;;;10.75;10.25;;;;;22.81;40.72;101079.91;5121137;27;45180;-68
2022/09/01 03:32:51;;;;;;;;;11.00;10.25;;;;;22.78;40.06;101082.75;5120926;27;46180;-68
2022/09/01 03:35:16;;;;;;;;;11.25;11.25;;;;;22.78;40.65;101088.13;5102229;27;45403;-67
2022/09/01 03:37:43;;;;;;;;;11.50;11.50;;;;;22.76;40.45;101082.88;5121066;27;45365;-67
2022/09/01 03:40:09;;;;;;;;;10.25;9.75;;;;;22.75;40.60;101080.28;5121143;27;45484;-67
2022/09/01 03:42:35;;;;;;;;;10.00;9.00;;;;;22.74;40.65;101076.72;5120654;27;46409;-68
2022/09/01 03:45:08;;;;;;;;;14.00;12.00;;;;;22.72;40.50;101070.63;5121026;27;45314;-68
2022/09/01 03:47:39;;;;;;;;;12.25;11.25;;;;;22.67;40.85;101057.50;5120905;27;45411;-68
2022/09/01 03:50:11;;;;;;;;;12.00;12.00;;;;;22.70;41.06;101083.22;5120533;27;45433;-68
2022/09/01 03:52:39;;;;;;;;;13.75;12.50;;;;;22.69;40.89;101079.69;5120772;27;46476;-67
2022/09/01 03:55:05;;;;;;;;;11.75;11.00;;;;;22.66;40.88;101079.88;5119319;27;45251;-67
2022/09/01 03:57:33;;;;;;;;;11.25;11.25;;;;;22.63;40.57;101066.69;5120710;27;45375;-66
2022/09/01 03:59:58;;;;;;;;;13.75;12.00;;;;;22.62;40.54;101072.97;5120781;27;45503;-67
2022/09/01 04:02:24;;;;;;;;;12.75;11.75;;;;;22.62;41.04;101074.81;5120658;27;45334;-70
2022/09/01 04:04:49;;;;;;;;;14.25;13.00;;;;;22.61;40.94;101076.59;5099122;27;45383;-67
2022/09/01 04:07:15;;;;;;;;;13.00;11.00;;;;;22.59;41.18;101074.97;5081909;27;45262;-67
2022/09/01 04:09:41;;;;;;;;;10.75;10.75;;;;;22.55;40.69;101072.50;5100009;27;45222;-67
2022/09/01 04:12:07;;;;;;;;;10.75;10.00;;;;;22.54;41.08;101075.25;5099927;27;45957;-68
2022/09/01 04:14:33;;;;;;;;;10.25;10.25;;;;;22.51;41.22;101070.94;5099632;27;45312;-67
2022/09/01 04:19:43;;;;;;;;;10.50;10.50;;;;;22.46;41.44;101072.16;5099725;27;45245;-67
2022/09/01 04:22:13;;;;;;;;;17.00;14.00;;;;;22.44;41.40;101068.72;5099311;27;45207;-67
2022/09/01 04:24:41;;;;;;;;;12.75;11.75;;;;;22.41;41.38;101072.44;5100036;27;45393;-67
2022/09/01 04:27:09;;;;;;;;;11.00;10.00;;;;;22.38;41.37;101068.13;5102978;27;45318;-66
2022/09/01 04:29:34;;;;;;;;;11.50;10.25;;;;;22.37;41.57;101063.72;5103114;27;45235;-67
2022/09/01 04:32:04;;;;;;;;;10.25;10.25;;;;;22.37;41.42;101066.38;5084789;27;47305;-67
2022/09/01 04:34:35;;;;;;;;;12.50;12.25;;;;;22.32;41.49;101063.09;5110162;27;45291;-67
2022/09/01 04:37:02;;;;;;;;;13.25;10.50;;;;;;;;5123653;27;45376;-65
2022/09/01 04:39:28;;;;;;;;;13.75;13.75;;;;;;;;5123978;27;45348;-67
2022/09/01 04:41:54;;;;;;;;;13.75;12.00;;;;;22.27;41.55;101069.69;5123567;27;47018;-67
2022/09/01 04:44:19;;;;;;;;;10.75;10.75;;;;;22.25;41.68;101064.44;5123508;27;45446;-67
2022/09/01 04:46:47;;;;;;;;;12.00;12.00;;;;;22.22;41.63;101069.94;5123667;27;45287;-67
2022/09/01 04:49:18;;;;;;;;;10.75;10.75;;;;;22.21;41.37;101073.56;5105393;27;45334;-67
2022/09/01 04:51:47;;;;;;;;;12.00;11.00;;;;;22.19;41.49;101072.81;5123121;27;46336;-67
2022/09/01 04:54:13;;;;;;;;;11.75;10.75;;;;;22.15;41.48;101069.44;5123486;27;45436;-67
2022/09/01 04:56:43;;;;;;;;;13.50;10.75;;;;;22.15;41.89;101068.56;5123398;27;45455;-67
2022/09/01 04:59:11;;;;;;;;;13.25;12.25;;;;;22.14;41.79;101072.19;5123396;27;45288;-67
2022/09/01 05:01:44;;;;;;;;;14.50;12.00;;;;;22.12;42.10;101072.28;5123257;27;45287;-67
2022/09/01 05:04:11;;;;;;;;;11.75;10.00;;;;;22.11;41.72;101070.56;5104656;27;45334;-67
2022/09/01 05:06:40;;;;;;;;;13.50;12.00;;;;;22.10;41.66;101067.97;5123078;27;45222;-67
2022/09/01 05:09:08;;;;;;;;;14.00;12.50;;;;;22.08;41.78;101070.75;5123276;27;45481;-66
2022/09/01 05:11:35;;;;;;;;;9.75;9.75;;;;;22.07;42.33;101069.00;5122940;27;45389;-66
2022/09/01 05:14:01;;;;;;;;;11.75;11.50;;;;;22.06;41.83;101068.16;5123178;27;45413;-67
2022/09/01 05:16:27;;;;;;;;;12.25;11.25;;;;;22.03;42.05;101065.66;5123183;27;45320;-67
2022/09/01 05:18:54;;;;;;;;;13.25;12.25;;;;;22.01;41.82;101064.88;5123228;27;45456;-67
2022/09/01 05:21:23;;;;;;;;;13.75;12.25;;;;;22.02;41.88;101063.91;5122783;27;46263;-67
2022/09/01 05:23:50;;;;;;;;;11.25;10.50;;;;;22.01;42.18;101070.25;5122018;27;45467;-67
2022/09/01 05:26:19;;;;;;;;;15.25;13.50;;;;;22.01;42.29;101072.91;5123063;27;45295;-66
2022/09/01 05:28:47;;;;;;;;;14.00;13.00;;;;;21.99;41.98;101074.81;5122734;27;45383;-66
2022/09/01 05:31:12;;;;;;;;;11.25;10.75;;;;;22.01;42.14;101080.06;5122734;27;45350;-67
2022/09/01 05:33:44;;;;;;;;;15.25;15.25;;;;;21.98;42.22;101070.41;5122886;27;45295;-67
2022/09/01 05:36:11;;;;;;;;;10.00;10.00;;;;;22.00;42.42;101073.84;5122756;27;45420;-66
2022/09/01 05:38:41;;;;;;;;;14.00;12.00;;;;;21.98;42.35;101067.72;5122632;27;45461;-67
2022/09/01 05:41:08;;;;;;;;;15.75;15.25;;;;;21.99;42.68;101076.63;5122825;27;45181;-67
2022/09/01 05:43:34;;;;;;;;;12.00;11.00;;;;;21.99;42.13;101081.97;5122531;27;45243;-67
2022/09/01 05:46:02;;;;;;;;;10.75;10.75;;;;;21.98;42.57;101073.06;5122780;27;45231;-66
2022/09/01 05:48:30;;;;;;;;;14.25;12.25;;;;;22.00;42.81;101078.34;5122663;27;45322;-66
2022/09/01 05:50:58;;;;;;;;;14.75;14.75;;;;;22.02;42.61;101084.47;5122269;27;45465;-67
2022/09/01 05:53:24;;;;;;;;;13.25;11.00;;;;;22.02;42.32;101079.97;5122430;27;45301;-67
2022/09/01 05:55:55;;;;;;;;;11.00;10.50;;;;;22.02;42.71;101079.97;5122514;27;45338;-67
2022/09/01 05:58:23;;;;;;;;;15.25;14.50;;;;;22.03;42.25;101073.66;5122269;27;45177;-67
2022/09/01 06:00:50;;;;;;;;;15.00;12.75;;;;;22.03;42.63;101075.50;5122460;27;45356;-67
2022/09/01 06:03:16;;;;;;;;;13.75;13.75;;;;;22.02;42.85;101074.63;5122044;27;45362;-67
2022/09/01 06:05:47;;;;;;;;;13.75;12.75;;;;;22.03;42.64;101070.16;5122453;27;45374;-67
2022/09/01 06:08:17;;;;;;;;;15.75;15.00;;;;;22.02;42.79;101077.28;5122285;27;45390;-67
2022/09/01 06:10:42;;;;;;;;;16.00;13.50;;;;;22.00;42.75;101078.34;5122243;27;47284;-67
2022/09/01 06:13:08;;;;;;;;;12.25;11.50;;;;;22.00;42.88;101081.88;5120625;27;45864;-66
2022/09/01 06:15:37;;;;;;;;;14.50;12.00;;;;;22.00;42.41;101075.66;5122481;27;45341;-67
2022/09/01 06:18:04;;;;;;;;;12.75;12.75;;;;;22.00;42.60;101081.88;5121481;27;45450;-67
2022/09/01 06:20:30;;;;;;;;;13.50;12.50;;;;;21.99;42.83;101085.50;5121891;27;46000;-67
2022/09/01 06:22:55;;;;;;;;;12.75;11.75;;;;;21.99;42.51;101087.34;5121922;27;45276;-67
2022/09/01 06:25:21;;;;;;;;;12.00;11.50;;;;;22.01;43.00;101080.06;5122269;27;45360;-68
2022/09/01 06:27:47;;;;;;;;;15.75;13.75;;;;;22.00;42.87;101086.34;5120443;27;45435;-67
2022/09/01 06:30:19;;;;;;;;;15.25;13.00;;;;;22.00;42.81;101087.25;5121702;27;46208;-67
2022/09/01 06:32:45;;;;;;;;;14.25;14.25;;;;;22.00;42.48;101089.91;5121769;27;45262;-68
2022/09/01 06:35:11;;;;;;;;;13.75;13.75;;;;;22.00;42.75;101089.91;5121642;27;45382;-67
2022/09/01 06:37:37;;;;;;;;;14.00;13.25;;;;;22.01;42.66;101090.75;5121443;27;45306;-67
2022/09/01 06:40:04;;;;;;;;;15.00;13.50;;;;;22.02;42.94;101093.34;5121822;27;47254;-67
2022/09/01 06:42:33;;;;;;;;;13.25;13.25;;;;;22.04;43.18;101093.28;5121302;27;45423;-67
2022/09/01 06:45:00;;;;;;;;;9.00;9.00;;;;;22.04;43.09;101090.59;5120453;27;45319;-67
2022/09/01 06:47:27;;;;;;;;;11.50;11.50;;;;;22.08;42.71;101098.34;5121627;27;45570;-67
2022/09/01 06:49:57;;;;;;;;;12.25;11.25;;;;;22.12;42.90;101092.84;5102251;27;47079;-67
2022/09/01 06:52:23;;;;;;;;;11.75;11.75;;;;;22.15;43.34;101089.97;5121652;27;45303;-65
2022/09/01 06:54:50;;;;;;;;;13.25;13.25;;;;;22.17;42.71;101098.78;5121614;27;45375;-67
2022/09/01 06:57:16;;;;;;;;;13.25;13.25;;;;;22.20;42.76;101099.47;5121369;27;45386;-67
2022/09/01 06:59:41;;;;;;;;;13.25;12.50;;;;;22.23;43.20;101095.75;5121296;27;45355;-68
2022/09/01 07:02:07;;;;;;;;;13.00;12.75;;;;;22.24;42.86;101102.84;5121597;27;45461;-67
2022/09/01 07:04:33;;;;;;;;;11.50;11.50;;;;;22.28;42.80;101095.50;5102769;27;45355;-67
2022/09/01 07:06:59;;;;;;;;;16.00;12.00;;;;;22.32;43.02;101099.72;5121362;27;45395;-67
2022/09/01 07:09:25;;;;;;;;;9.50;9.00;;;;;22.34;42.80;101104.03;5121252;27;47555;-67
2022/09/01 07:11:51;;;;;;;;;12.25;12.25;;;;;22.36;43.19;101095.91;5121384;27;45319;-67
2022/09/01 07:14:18;;;;;;;;;15.25;13.50;;;;;22.39;43.03;101091.28;5121101;27;45272;-68
2022/09/01 07:16:45;;;;;;;;;17.75;14.75;;;;;22.40;43.18;101086.75;5121355;27;45228;-68
2022/09/01 07:19:14;;;;;;;;;12.75;12.75;;;;;22.42;43.00;101087.53;5120905;27;46488;-66
2022/09/01 07:21:42;;;;;;;;;15.00;13.00;;;;;22.45;43.11;101094.53;5120801;27;45488;-66
2022/09/01 07:24:09;;;;;;;;;13.00;13.00;;;;;22.48;43.09;101097.06;5120711;27;45294;-67
2022/09/01 07:26:35;;;;;;;;;15.75;15.50;;;;;22.49;43.12;101099.63;5121162;27;45236;-65
2022/09/01 07:29:03;;;;;;;;;13.25;12.00;;;;;22.51;43.22;101102.22;5102047;27;47154;-66
2022/09/01 07:31:35;;;;;;;;;12.50;11.75;;;;;22.52;42.72;101094.06;5121124;27;45331;-66
2022/09/01 07:34:04;;;;;;;;;11.00;11.00;;;;;22.54;43.49;101099.34;5121277;27;45508;-67
2022/09/01 07:36:31;;;;;;;;;16.00;12.50;;;;;22.56;43.37;101102.78;5120835;27;45529;-67
2022/09/01 07:38:59;;;;;;;;;10.25;10.00;;;;;22.56;42.83;101097.44;5120714;27;46088;-66
2022/09/01 07:41:25;;;;;;;;;10.00;10.00;;;;;22.59;43.18;101102.63;5120897;27;45393;-66
2022/09/01 07:43:54;;;;;;;;;11.25;10.50;;;;;22.63;42.90;101106.84;5120994;27;45366;-67
2022/09/01 07:46:22;;;;;;;;;12.00;12.00;;;;;22.62;42.97;101094.41;5119623;27;45290;-66
2022/09/01 07:48:49;;;;;;;;;14.00;13.25;;;;;22.66;42.85;101101.28;5120818;27;45413;-67
2022/09/01 07:51:18;;;;;;;;;11.50;11.50;;;;;22.72;43.03;101108.97;5120686;27;45304;-66
2022/09/01 07:53:47;;;;;;;;;13.25;11.50;;;;;22.76;43.08;101100.75;5121008;27;45263;-67
2022/09/01 07:56:14;;;;;;;;;10.00;10.00;;;;;22.77;43.05;101100.66;5120868;27;45520;-67
2022/09/01 07:58:40;;;;;;;;;15.25;14.00;;;;;22.83;43.08;101108.34;5120388;27;46391;-66
2022/09/01 08:01:17;;;;;;;;;14.50;13.75;;;;;22.86;43.02;101109.97;5103243;27;45359;-66
2022/09/01 08:03:44;;;;;;;;;15.00;14.50;;;;;22.92;42.71;101104.25;5124274;27;45336;-66
2022/09/01 08:06:13;;;;;;;;;13.00;12.50;;;;;22.97;43.17;101109.31;5123894;27;45418;-66
2022/09/01 08:08:39;;;;;;;;;12.00;10.50;;;;;23.02;43.02;101113.44;5124253;27;45270;-66
2022/09/01 08:11:05;;;;;;;;;14.00;13.00;;;;;23.06;43.14;101108.75;5124176;27;45241;-66
2022/09/01 08:13:32;;;;;;;;;14.00;13.75;;;;;23.13;42.91;101117.28;5124397;27;45332;-66
2022/09/01 08:15:58;;;;;;;;;14.75;14.75;;;;;23.16;42.71;101127.84;5123960;27;45546;-66
2022/09/01 08:18:23;;;;;;;;;13.75;12.00;;;;;23.21;43.09;101115.03;5105488;27;46165;-66
2022/09/01 08:20:48;;;;;;;;;14.25;14.25;;;;;23.24;42.80;101124.69;5123766;27;45271;-66
2022/09/01 08:23:17;;;;;;;;;8.75;8.00;;;;;23.23;42.83;101107.72;5124420;27;45299;-66
2022/09/01 08:25:43;;;;;;;;;16.00;13.00;;;;;23.30;43.09;101114.44;5124106;27;45470;-66
2022/09/01 08:28:09;;;;;;;;;13.25;13.00;;;;;23.34;42.73;101113.28;5104916;27;46210;-66
2022/09/01 08:30:38;;;;;;;;;11.75;11.25;;;;;23.37;43.13;101106.91;5123779;27;45235;-66
2022/09/01 08:33:03;;;;;;;;;11.25;10.25;;;;;23.38;42.83;101116.66;5124270;27;45369;-66
2022/09/01 08:35:29;;;;;;;;;13.75;12.75;;;;;23.35;42.84;101096.25;5123374;27;45308;-66
2022/09/01 08:37:55;;;;;;;;;14.00;12.75;;;;;23.46;42.50;101117.03;5123710;27;46302;-66
2022/09/01 08:40:22;;;;;;;;;16.25;13.75;;;;;23.48;42.90;101103.53;5105229;27;45464;-66
2022/09/01 08:43:23;;;;;;;;;11.25;10.75;;;;;23.53;42.76;101110.34;5123687;27;45301;-66
2022/09/01 08:45:55;;;;;;;;;10.75;10.75;;;;;23.57;42.88;101115.50;5123713;27;45345;-66
2022/09/01 08:48:39;;;;;;;;;15.00;12.75;;;;;23.60;42.84;101112.63;5123357;27;46049;-66
2022/09/01 08:51:26;;;;;;;;;11.25;11.25;;;;;23.65;42.82;101116.75;5123441;27;45452;-66
2022/09/01 08:54:13;;;;;;;;;11.00;11.00;;;;;23.70;42.65;101117.31;5123676;27;45544;-66
2022/09/01 08:56:39;;;;;;;;;12.00;10.25;;;;;23.74;42.98;101112.59;5123307;27;45309;-66
2022/09/01 08:59:08;;;;;;;;;11.00;10.50;;;;;23.81;42.92;101123.78;5123183;27;46287;-66
2022/09/01 09:01:54;;;;;;;;;12.50;11.75;;;;;23.87;42.56;101123.41;5123029;27;45261;-66
2022/09/01 09:04:48;;;;;;;;;11.75;11.75;;;;;23.92;42.83;101120.47;5114975;27;45258;-66
2022/09/01 09:07:28;;;;;;;;;9.25;9.25;;;;;23.97;42.91;101124.56;5112276;27;45339;-66
2022/09/01 09:10:09;;;;;;;;;11.00;10.00;;;;;24.02;42.87;101122.47;5123050;27;45412;-67
2022/09/01 09:12:37;;;;;;;;;12.00;12.00;;;;;24.10;43.22;101121.09;5122737;27;45329;-67
2022/09/01 09:15:19;;;;;;;;;12.00;10.00;;;;;24.17;42.74;101122.41;5123369;27;45314;-67
2022/09/01 09:17:55;;;;;;;;;11.00;11.00;;;;;24.24;42.68;101126.41;5122566;27;45177;-67
2022/09/01 09:20:20;;;;;;;;;11.00;10.75;;;;;24.32;42.62;101118.69;5104942;27;46086;-67
2022/09/01 09:22:47;;;;;;;;;12.50;11.75;;;;;24.40;42.60;101125.41;5122967;27;45218;-67
2022/09/01 09:25:16;;;;;;;;;13.50;12.00;;;;;24.46;42.35;101119.63;5123356;27;45459;-67
2022/09/01 09:27:44;;;;;;;;;13.75;13.75;;;;;24.53;42.60;101117.38;5122632;27;45342;-67
2022/09/01 09:30:19;;;;;;;;;14.25;13.75;;;;;24.60;42.23;101105.25;5122844;27;45248;-67
2022/09/01 09:33:31;;;;;;;;;10.75;10.25;;;;;24.70;42.60;101111.75;5122811;27;45325;-66
2022/09/01 09:36:18;;;;;;;;;11.00;10.50;;;;;24.80;42.42;101112.00;5122258;27;45528;-66
2022/09/01 09:38:44;;;;;;;;;13.00;13.00;;;;;24.91;42.37;101112.09;5122623;27;45577;-66
2022/09/01 09:41:19;;;;;;;;;9.75;9.75;;;;;25.01;42.37;101114.19;5122799;27;45249;-66
2022/09/01 09:43:59;;;;;;;;;12.00;12.00;;;;;25.10;42.60;101113.53;5122747;27;45308;-67
2022/09/01 09:46:27;;;;;;;;;14.75;12.50;;;;;25.19;41.95;101112.03;5122852;27;45329;-66
2022/09/01 09:49:11;;;;;;;;;20.00;17.25;;;;;25.26;41.98;101111.47;5122567;27;45177;-66
2022/09/01 09:51:43;;;;;;;;;19.50;16.75;;;;;25.35;42.00;101106.44;5122256;27;45254;-67
2022/09/01 09:54:16;;;;;;;;;9.50;9.25;;;;;25.43;41.67;101110.31;5122631;27;45326;-67
2022/09/01 09:56:45;;;;;;;;;10.75;9.00;;;;;25.52;41.76;101111.50;5122902;27;45300;-67
2022/09/01 09:59:20;;;;;;;;;10.00;10.00;;;;;25.62;42.06;101104.47;5122406;27;45484;-67
2022/09/01 10:01:50;;;;;;;;;13.00;11.50;;;;;25.70;42.19;101098.53;5122407;27;45362;-67
2022/09/01 10:04:37;;;;;;;;;13.00;11.75;;;;;25.82;42.14;101104.00;5121913;27;45180;-67
2022/09/01 10:07:23;;;;;;;;;11.25;10.25;;;;;25.91;41.61;101109.56;5109927;27;45459;-67
2022/09/01 10:09:49;;;;;;;;;10.25;9.75;;;;;26.01;41.78;101107.06;5120993;27;45353;-67
2022/09/01 10:12:15;;;;;;;;;8.25;8.00;;;;;26.09;41.46;101109.22;5122353;27;45586;-67
2022/09/01 10:14:49;;;;;;;;;12.25;12.00;;;;;26.19;40.97;101102.16;5122064;27;45333;-67
2022/09/01 10:17:20;;;;;;;;;9.50;9.50;;;;;26.27;40.99;101094.34;5122473;27;45276;-67
2022/09/01 10:20:08;;;;;;;;;9.75;9.00;;;;;26.39;41.24;101097.09;5121902;27;45571;-67
2022/09/01 10:22:35;;;;;;;;;7.50;7.50;;;;;26.49;41.10;101092.75;5121629;27;45374;-67
2022/09/01 10:25:03;;;;;;;;;11.00;10.75;;;;;26.58;40.78;101091.19;5121699;27;45213;-67
2022/09/01 10:27:33;;;;;;;;;12.00;10.50;;;;;26.71;40.66;101096.50;5122008;27;45452;-66
2022/09/01 10:30:14;;;;;;;;;9.00;9.00;;;;;26.79;40.52;101091.38;5122005;27;45394;-66
2022/09/01 10:33:00;;;;;;;;;8.75;8.25;;;;;26.97;40.96;101088.22;5103262;27;46496;-65
2022/09/01 10:35:43;;;;;;;;;8.50;8.50;;;;;27.13;40.90;101088.78;5103181;27;45848;-65
2022/09/01 10:38:16;;;;;;;;;10.50;9.00;;;;;27.32;40.42;101085.47;5121109;27;45340;-66
2022/09/01 10:40:47;;;;;;;;;9.75;8.00;;;;;27.50;40.26;101083.16;5121833;27;45397;-66
2022/09/01 10:43:41;;;;;;;;;9.00;8.50;;;;;27.73;40.08;101080.41;5121527;27;46346;-68
2022/09/01 10:46:08;;;;;;;;;8.25;8.25;;;;;28.00;40.15;101079.13;5121938;27;45365;-67
2022/09/01 10:48:34;;;;;;;;;8.75;7.75;;;;;28.27;39.97;101076.00;5121734;27;45382;-67
2022/09/01 10:51:11;;;;;;;;;7.00;7.00;;;;;28.59;40.15;101079.66;5121669;27;45427;-67
2022/09/01 10:53:45;;;;;;;;;8.00;7.00;;;;;28.96;39.78;101081.91;5121605;27;46142;-67
2022/09/01 10:56:13;;;;;;;;;6.00;6.00;;;;;29.32;40.08;101074.28;5121624;27;45296;-68
2022/09/01 10:59:04;;;;;;;;;7.25;7.25;;;;;29.69;39.22;101081.81;5121569;27;45413;-67
2022/09/01 11:01:44;;;;;;;;;6.00;5.00;;;;;30.04;39.10;101075.06;5121653;27;45256;-67
2022/09/01 11:04:18;;;;;;;;;7.00;7.00;;;;;30.32;38.97;101083.34;5121142;27;46374;-68
2022/09/01 11:07:05;;;;;;;;;7.00;5.50;;;;;30.52;38.07;101073.38;5084184;27;45391;-67
2022/09/01 11:09:30;;;;;;;;;7.75;6.25;;;;;30.70;38.23;101078.91;5101046;27;45216;-67
2022/09/01 11:12:12;;;;;;;;;9.00;7.00;;;;;30.82;37.15;101070.59;5082674;27;45214;-66
2022/09/01 11:14:49;;;;;;;;;6.25;6.25;;;;;30.91;36.73;101070.59;5100709;27;46078;-67
2022/09/01 11:17:18;;;;;;;;;8.00;7.00;;;;;30.96;36.42;101070.16;5100580;27;45283;-67
2022/09/01 11:20:07;;;;;;;;;9.25;8.00;;;;;31.01;36.27;101067.84;5100393;27;45469;-67
2022/09/01 11:22:56;;;;;;;;;8.25;7.50;;;;;31.04;36.43;101063.97;5100521;27;45184;-67
2022/09/01 11:25:43;;;;;;;;;4.75;4.75;;;;;31.05;36.42;101063.81;5061929;27;46336;-67
2022/09/01 11:28:15;;;;;;;;;6.00;6.00;;;;;31.03;35.67;101063.13;5108060;27;45323;-67
2022/09/01 11:30:52;;;;;;;;;9.00;8.50;;;;;30.99;35.30;101053.56;5121256;27;45252;-67